sensor_id;sensor_type;location;lat;lon;timestamp;temperature;humidity
30063;DHT22;16889;67.864;24.990;2022-09-12T00:02:38;6.70;99.90
30063;DHT22;16889;67.864;24.990;2022-09-12T00:07:24;6.70;99.90
30063;DHT22;16889;67.864;24.990;2022-09-12T00:12:09;6.70;99.90
30063;DHT22;16889;67.864;24.990;2022-09-12T00:16:59;6.70;99.90
30063;DHT22;16889;67.864;24.990;2022-09-12T00:21:45;6.80;99.90
30063;DHT22;16889;67.864;24.990;2022-09-12T00:26:31;6.90;99.90
30063;DHT22;16889;67.864;24.990;2022-09-12T00:31:21;6.90;99.90
30063;DHT22;16889;67.864;24.990;2022-09-12T00:36:12;6.80;99.90
30063;DHT22;16889;67.864;24.990;2022-09-12T00:40:59;6.60;99.90
30063;DHT22;16889;67.864;24.990;2022-09-12T00:45:45;6.50;99.90
30063;DHT22;16889;67.864;24.990;2022-09-12T00:50:32;6.50;99.90
30063;DHT22;16889;67.864;24.990;2022-09-12T00:55:33;6.50;99.90
30063;DHT22;16889;67.864;24.990;2022-09-12T01:00:23;6.50;99.90
30063;DHT22;16889;67.864;24.990;2022-09-12T01:05:10;6.60;99.90
30063;DHT22;16889;67.864;24.990;2022-09-12T01:09:57;6.60;99.90
30063;DHT22;16889;67.864;24.990;2022-09-12T01:14:43;6.50;99.90
30063;DHT22;16889;67.864;24.990;2022-09-12T01:25:07;6.60;99.90
30063;DHT22;16889;67.864;24.990;2022-09-12T01:35:54;6.80;99.90
30063;DHT22;16889;67.864;24.990;2022-09-12T01:40:41;6.80;99.90
30063;DHT22;16889;67.864;24.990;2022-09-12T01:45:45;6.90;99.90
30063;DHT22;16889;67.864;24.990;2022-09-12T01:50:37;6.90;99.90
30063;DHT22;16889;67.864;24.990;2022-09-12T01:55:32;7.00;99.90
30063;DHT22;16889;67.864;24.990;2022-09-12T02:00:19;7.00;99.90
30063;DHT22;16889;67.864;24.990;2022-09-12T02:10:21;7.10;99.90
30063;DHT22;16889;67.864;24.990;2022-09-12T02:15:09;7.10;99.90
30063;DHT22;16889;67.864;24.990;2022-09-12T02:20:08;7.10;99.90
30063;DHT22;16889;67.864;24.990;2022-09-12T02:24:58;7.10;99.90
30063;DHT22;16889;67.864;24.990;2022-09-12T02:29:45;7.10;99.90
30063;DHT22;16889;67.864;24.990;2022-09-12T02:34:55;7.00;99.90
30063;DHT22;16889;67.864;24.990;2022-09-12T02:39:44;7.00;99.90
30063;DHT22;16889;67.864;24.990;2022-09-12T02:44:31;7.00;99.90
30063;DHT22;16889;67.864;24.990;2022-09-12T02:49:18;7.10;99.90
30063;DHT22;16889;67.864;24.990;2022-09-12T02:54:05;7.00;99.90
30063;DHT22;16889;67.864;24.990;2022-09-12T02:58:53;7.00;99.90
30063;DHT22;16889;67.864;24.990;2022-09-12T03:04:26;7.00;99.90
30063;DHT22;16889;67.864;24.990;2022-09-12T03:14:55;7.00;99.90
30063;DHT22;16889;67.864;24.990;2022-09-12T03:24:51;7.00;99.90
30063;DHT22;16889;67.864;24.990;2022-09-12T03:29:40;7.00;99.90
30063;DHT22;16889;67.864;24.990;2022-09-12T03:34:27;7.00;99.90
30063;DHT22;16889;67.864;24.990;2022-09-12T03:39:14;7.00;99.90
30063;DHT22;16889;67.864;24.990;2022-09-12T03:44:00;7.00;99.90
30063;DHT22;16889;67.864;24.990;2022-09-12T03:48:46;7.00;99.90
30063;DHT22;16889;67.864;24.990;2022-09-12T03:53:32;7.00;99.90
30063;DHT22;16889;67.864;24.990;2022-09-12T03:58:18;7.00;99.90
30063;DHT22;16889;67.864;24.990;2022-09-12T04:03:04;7.00;99.90
30063;DHT22;16889;67.864;24.990;2022-09-12T04:07:52;6.90;99.90
30063;DHT22;16889;67.864;24.990;2022-09-12T04:12:38;6.90;99.90
30063;DHT22;16889;67.864;24.990;2022-09-12T04:17:24;7.00;99.90
30063;DHT22;16889;67.864;24.990;2022-09-12T04:22:10;7.00;99.90
30063;DHT22;16889;67.864;24.990;2022-09-12T04:26:56;7.00;99.90
30063;DHT22;16889;67.864;24.990;2022-09-12T04:31:42;7.10;99.90
30063;DHT22;16889;67.864;24.990;2022-09-12T04:36:28;7.20;99.90
30063;DHT22;16889;67.864;24.990;2022-09-12T04:41:34;7.20;99.90
30063;DHT22;16889;67.864;24.990;2022-09-12T04:46:21;7.20;99.90
30063;DHT22;16889;67.864;24.990;2022-09-12T04:51:15;7.30;99.90
30063;DHT22;16889;67.864;24.990;2022-09-12T04:56:03;7.30;99.90
30063;DHT22;16889;67.864;24.990;2022-09-12T05:00:50;7.40;99.90
30063;DHT22;16889;67.864;24.990;2022-09-12T05:05:36;7.50;99.90
30063;DHT22;16889;67.864;24.990;2022-09-12T05:10:22;7.50;99.90
30063;DHT22;16889;67.864;24.990;2022-09-12T05:15:09;7.60;99.90
30063;DHT22;16889;67.864;24.990;2022-09-12T05:19:55;7.60;99.90
30063;DHT22;16889;67.864;24.990;2022-09-12T05:24:41;7.70;99.90
30063;DHT22;16889;67.864;24.990;2022-09-12T05:29:28;7.70;99.90
30063;DHT22;16889;67.864;24.990;2022-09-12T05:34:14;7.80;99.90
30063;DHT22;16889;67.864;24.990;2022-09-12T05:39:00;7.80;99.90
30063;DHT22;16889;67.864;24.990;2022-09-12T05:43:49;7.80;99.90
30063;DHT22;16889;67.864;24.990;2022-09-12T05:48:37;7.90;99.90
30063;DHT22;16889;67.864;24.990;2022-09-12T05:53:23;7.90;99.90
30063;DHT22;16889;67.864;24.990;2022-09-12T05:58:12;8.00;99.90
30063;DHT22;16889;67.864;24.990;2022-09-12T06:02:59;8.10;99.90
30063;DHT22;16889;67.864;24.990;2022-09-12T06:07:46;8.20;99.90
30063;DHT22;16889;67.864;24.990;2022-09-12T06:12:32;8.30;99.90
30063;DHT22;16889;67.864;24.990;2022-09-12T06:17:18;8.40;99.90
30063;DHT22;16889;67.864;24.990;2022-09-12T06:22:05;8.60;99.90
30063;DHT22;16889;67.864;24.990;2022-09-12T06:26:51;8.80;99.90
30063;DHT22;16889;67.864;24.990;2022-09-12T06:31:41;8.90;99.90
30063;DHT22;16889;67.864;24.990;2022-09-12T06:36:30;8.80;99.90
30063;DHT22;16889;67.864;24.990;2022-09-12T06:41:16;8.90;99.90
30063;DHT22;16889;67.864;24.990;2022-09-12T06:46:02;9.00;99.90
30063;DHT22;16889;67.864;24.990;2022-09-12T06:50:59;9.20;99.90
30063;DHT22;16889;67.864;24.990;2022-09-12T06:55:46;9.30;99.90
30063;DHT22;16889;67.864;24.990;2022-09-12T07:00:39;9.50;99.90
30063;DHT22;16889;67.864;24.990;2022-09-12T07:05:25;9.50;99.90
30063;DHT22;16889;67.864;24.990;2022-09-12T07:10:11;9.50;99.90
30063;DHT22;16889;67.864;24.990;2022-09-12T07:14:57;9.40;99.90
30063;DHT22;16889;67.864;24.990;2022-09-12T07:19:43;9.40;99.90
30063;DHT22;16889;67.864;24.990;2022-09-12T07:24:29;9.40;99.90
30063;DHT22;16889;67.864;24.990;2022-09-12T07:29:16;9.50;99.90
30063;DHT22;16889;67.864;24.990;2022-09-12T07:34:04;9.80;99.90
30063;DHT22;16889;67.864;24.990;2022-09-12T07:38:56;10.40;99.90
30063;DHT22;16889;67.864;24.990;2022-09-12T07:43:42;10.50;99.90
30063;DHT22;16889;67.864;24.990;2022-09-12T07:48:28;10.60;99.90
30063;DHT22;16889;67.864;24.990;2022-09-12T07:53:14;10.90;99.90
30063;DHT22;16889;67.864;24.990;2022-09-12T07:58:00;11.10;99.90
30063;DHT22;16889;67.864;24.990;2022-09-12T08:02:53;11.00;99.90
30063;DHT22;16889;67.864;24.990;2022-09-12T08:07:39;11.10;99.90
30063;DHT22;16889;67.864;24.990;2022-09-12T08:12:27;11.50;99.90
30063;DHT22;16889;67.864;24.990;2022-09-12T08:17:13;11.60;99.90
30063;DHT22;16889;67.864;24.990;2022-09-12T08:21:59;11.60;99.90
30063;DHT22;16889;67.864;24.990;2022-09-12T08:26:45;11.70;99.90
30063;DHT22;16889;67.864;24.990;2022-09-12T08:31:31;11.60;99.90
30063;DHT22;16889;67.864;24.990;2022-09-12T08:36:23;11.50;99.90
30063;DHT22;16889;67.864;24.990;2022-09-12T08:46:45;11.90;99.90
30063;DHT22;16889;67.864;24.990;2022-09-12T08:51:35;12.10;99.90
30063;DHT22;16889;67.864;24.990;2022-09-12T08:56:22;11.90;99.90
30063;DHT22;16889;67.864;24.990;2022-09-12T09:01:44;12.00;99.90
30063;DHT22;16889;67.864;24.990;2022-09-12T09:16:37;12.30;99.90
30063;DHT22;16889;67.864;24.990;2022-09-12T09:26:25;13.30;99.90
30063;DHT22;16889;67.864;24.990;2022-09-12T09:31:18;13.00;99.90
30063;DHT22;16889;67.864;24.990;2022-09-12T09:41:25;12.40;99.90
30063;DHT22;16889;67.864;24.990;2022-09-12T09:46:14;13.20;99.90
30063;DHT22;16889;67.864;24.990;2022-09-12T09:51:03;13.50;99.90
30063;DHT22;16889;67.864;24.990;2022-09-12T09:55:53;15.10;99.90
30063;DHT22;16889;67.864;24.990;2022-09-12T10:00:40;16.70;99.90
30063;DHT22;16889;67.864;24.990;2022-09-12T10:05:27;15.40;99.90
30063;DHT22;16889;67.864;24.990;2022-09-12T10:10:16;14.20;99.90
30063;DHT22;16889;67.864;24.990;2022-09-12T10:15:22;13.70;99.90
30063;DHT22;16889;67.864;24.990;2022-09-12T10:20:31;13.30;99.90
30063;DHT22;16889;67.864;24.990;2022-09-12T10:25:18;13.10;99.90
30063;DHT22;16889;67.864;24.990;2022-09-12T10:35:01;13.80;99.90
30063;DHT22;16889;67.864;24.990;2022-09-12T10:39:54;14.90;99.50
30063;DHT22;16889;67.864;24.990;2022-09-12T10:44:51;15.70;96.80
30063;DHT22;16889;67.864;24.990;2022-09-12T10:49:39;14.60;97.90
30063;DHT22;16889;67.864;24.990;2022-09-12T10:54:26;15.30;95.50
30063;DHT22;16889;67.864;24.990;2022-09-12T11:14:27;16.70;91.30
30063;DHT22;16889;67.864;24.990;2022-09-12T11:24:20;13.90;92.00
30063;DHT22;16889;67.864;24.990;2022-09-12T11:29:26;14.20;91.20
30063;DHT22;16889;67.864;24.990;2022-09-12T11:39:38;13.70;91.30
30063;DHT22;16889;67.864;24.990;2022-09-12T11:44:37;13.50;93.00
30063;DHT22;16889;67.864;24.990;2022-09-12T11:49:54;13.60;92.90
30063;DHT22;16889;67.864;24.990;2022-09-12T11:54:47;13.60;92.90
30063;DHT22;16889;67.864;24.990;2022-09-12T12:04:41;14.40;93.60
30063;DHT22;16889;67.864;24.990;2022-09-12T12:09:28;14.40;92.00
30063;DHT22;16889;67.864;24.990;2022-09-12T12:14:42;14.10;93.20
30063;DHT22;16889;67.864;24.990;2022-09-12T12:19:34;14.10;92.70
30063;DHT22;16889;67.864;24.990;2022-09-12T12:24:23;13.80;94.70
30063;DHT22;16889;67.864;24.990;2022-09-12T12:29:35;13.40;95.80
30063;DHT22;16889;67.864;24.990;2022-09-12T12:34:26;12.90;96.00
30063;DHT22;16889;67.864;24.990;2022-09-12T12:49:31;12.80;97.70
30063;DHT22;16889;67.864;24.990;2022-09-12T12:54:30;13.20;95.00
30063;DHT22;16889;67.864;24.990;2022-09-12T12:59:22;13.40;96.70
30063;DHT22;16889;67.864;24.990;2022-09-12T13:04:19;13.20;97.80
30063;DHT22;16889;67.864;24.990;2022-09-12T13:19:35;13.00;97.70
30063;DHT22;16889;67.864;24.990;2022-09-12T13:24:22;13.00;98.50
30063;DHT22;16889;67.864;24.990;2022-09-12T13:29:22;13.30;96.10
30063;DHT22;16889;67.864;24.990;2022-09-12T13:34:08;13.20;95.70
30063;DHT22;16889;67.864;24.990;2022-09-12T13:39:24;13.20;96.30
30063;DHT22;16889;67.864;24.990;2022-09-12T13:44:15;13.10;96.60
30063;DHT22;16889;67.864;24.990;2022-09-12T13:49:15;13.30;95.30
30063;DHT22;16889;67.864;24.990;2022-09-12T13:54:04;13.50;94.50
30063;DHT22;16889;67.864;24.990;2022-09-12T13:58:59;13.40;95.90
30063;DHT22;16889;67.864;24.990;2022-09-12T14:03:54;13.50;94.90
30063;DHT22;16889;67.864;24.990;2022-09-12T14:08:58;13.40;94.50
30063;DHT22;16889;67.864;24.990;2022-09-12T14:13:45;13.10;96.60
30063;DHT22;16889;67.864;24.990;2022-09-12T14:18:33;12.80;96.60
30063;DHT22;16889;67.864;24.990;2022-09-12T14:23:28;12.70;98.10
30063;DHT22;16889;67.864;24.990;2022-09-12T14:28:16;12.70;98.00
30063;DHT22;16889;67.864;24.990;2022-09-12T14:37:55;12.10;99.50
30063;DHT22;16889;67.864;24.990;2022-09-12T14:42:41;12.00;99.00
30063;DHT22;16889;67.864;24.990;2022-09-12T14:47:37;12.00;99.50
30063;DHT22;16889;67.864;24.990;2022-09-12T14:52:32;12.00;99.90
30063;DHT22;16889;67.864;24.990;2022-09-12T15:12:00;12.20;99.90
30063;DHT22;16889;67.864;24.990;2022-09-12T15:16:46;12.10;99.50
30063;DHT22;16889;67.864;24.990;2022-09-12T15:21:32;12.10;99.50
30063;DHT22;16889;67.864;24.990;2022-09-12T15:26:21;12.00;98.90
30063;DHT22;16889;67.864;24.990;2022-09-12T15:35:57;11.70;99.90
30063;DHT22;16889;67.864;24.990;2022-09-12T15:40:43;11.60;99.90
30063;DHT22;16889;67.864;24.990;2022-09-12T15:45:31;11.30;99.90
30063;DHT22;16889;67.864;24.990;2022-09-12T15:50:17;11.30;99.90
30063;DHT22;16889;67.864;24.990;2022-09-12T15:55:05;11.00;99.90
30063;DHT22;16889;67.864;24.990;2022-09-12T15:59:54;10.50;99.90
30063;DHT22;16889;67.864;24.990;2022-09-12T16:04:40;10.60;99.90
30063;DHT22;16889;67.864;24.990;2022-09-12T16:09:26;10.70;99.90
30063;DHT22;16889;67.864;24.990;2022-09-12T16:14:13;10.60;99.90
30063;DHT22;16889;67.864;24.990;2022-09-12T16:19:00;10.30;99.90
30063;DHT22;16889;67.864;24.990;2022-09-12T16:23:46;9.90;99.90
30063;DHT22;16889;67.864;24.990;2022-09-12T16:28:33;9.40;99.90
30063;DHT22;16889;67.864;24.990;2022-09-12T16:33:19;9.00;99.90
30063;DHT22;16889;67.864;24.990;2022-09-12T16:38:04;8.80;99.90
30063;DHT22;16889;67.864;24.990;2022-09-12T16:42:51;8.70;99.90
30063;DHT22;16889;67.864;24.990;2022-09-12T16:47:37;8.20;99.90
30063;DHT22;16889;67.864;24.990;2022-09-12T16:52:23;7.90;99.90
30063;DHT22;16889;67.864;24.990;2022-09-12T16:57:10;7.80;99.90
30063;DHT22;16889;67.864;24.990;2022-09-12T17:01:56;7.80;99.90
30063;DHT22;16889;67.864;24.990;2022-09-12T17:06:42;7.60;99.90
30063;DHT22;16889;67.864;24.990;2022-09-12T17:11:34;7.50;99.90
30063;DHT22;16889;67.864;24.990;2022-09-12T17:16:21;7.20;99.90
30063;DHT22;16889;67.864;24.990;2022-09-12T17:21:09;6.80;99.90
30063;DHT22;16889;67.864;24.990;2022-09-12T17:25:56;6.60;99.90
30063;DHT22;16889;67.864;24.990;2022-09-12T17:30:42;6.40;99.90
30063;DHT22;16889;67.864;24.990;2022-09-12T17:35:28;6.20;99.90
30063;DHT22;16889;67.864;24.990;2022-09-12T17:40:14;5.90;99.90
30063;DHT22;16889;67.864;24.990;2022-09-12T17:45:00;5.70;99.90
30063;DHT22;16889;67.864;24.990;2022-09-12T17:49:46;5.60;99.90
30063;DHT22;16889;67.864;24.990;2022-09-12T17:54:32;5.30;99.90
30063;DHT22;16889;67.864;24.990;2022-09-12T17:59:20;5.10;99.90
30063;DHT22;16889;67.864;24.990;2022-09-12T18:04:06;5.10;99.90
30063;DHT22;16889;67.864;24.990;2022-09-12T18:08:52;4.80;99.90
30063;DHT22;16889;67.864;24.990;2022-09-12T18:13:38;4.60;99.90
30063;DHT22;16889;67.864;24.990;2022-09-12T18:18:24;4.40;99.90
30063;DHT22;16889;67.864;24.990;2022-09-12T18:23:10;4.30;99.90
30063;DHT22;16889;67.864;24.990;2022-09-12T18:27:56;4.10;99.90
30063;DHT22;16889;67.864;24.990;2022-09-12T18:32:42;3.90;99.90
30063;DHT22;16889;67.864;24.990;2022-09-12T18:37:28;3.60;99.90
30063;DHT22;16889;67.864;24.990;2022-09-12T18:42:14;3.50;99.90
30063;DHT22;16889;67.864;24.990;2022-09-12T18:47:00;3.60;99.90
30063;DHT22;16889;67.864;24.990;2022-09-12T18:51:47;3.40;99.90
30063;DHT22;16889;67.864;24.990;2022-09-12T18:56:35;3.30;99.90
30063;DHT22;16889;67.864;24.990;2022-09-12T19:01:27;3.20;99.90
30063;DHT22;16889;67.864;24.990;2022-09-12T19:06:19;3.10;99.90
30063;DHT22;16889;67.864;24.990;2022-09-12T19:11:06;3.00;99.90
30063;DHT22;16889;67.864;24.990;2022-09-12T19:15:53;2.90;99.90
30063;DHT22;16889;67.864;24.990;2022-09-12T19:20:39;2.70;99.90
30063;DHT22;16889;67.864;24.990;2022-09-12T19:25:24;2.50;99.90
30063;DHT22;16889;67.864;24.990;2022-09-12T19:30:11;2.30;99.90
30063;DHT22;16889;67.864;24.990;2022-09-12T19:34:57;2.40;99.90
30063;DHT22;16889;67.864;24.990;2022-09-12T19:39:43;2.10;99.90
30063;DHT22;16889;67.864;24.990;2022-09-12T19:44:30;1.90;99.90
30063;DHT22;16889;67.864;24.990;2022-09-12T19:49:16;1.70;99.90
30063;DHT22;16889;67.864;24.990;2022-09-12T19:54:02;1.70;99.90
30063;DHT22;16889;67.864;24.990;2022-09-12T19:58:48;1.70;99.90
30063;DHT22;16889;67.864;24.990;2022-09-12T20:03:34;1.60;99.90
30063;DHT22;16889;67.864;24.990;2022-09-12T20:08:20;1.60;99.90
30063;DHT22;16889;67.864;24.990;2022-09-12T20:13:06;1.70;99.90
30063;DHT22;16889;67.864;24.990;2022-09-12T20:17:54;1.70;99.90
30063;DHT22;16889;67.864;24.990;2022-09-12T20:22:40;1.60;99.90
30063;DHT22;16889;67.864;24.990;2022-09-12T20:27:26;1.60;99.90
30063;DHT22;16889;67.864;24.990;2022-09-12T20:32:12;1.30;99.90
30063;DHT22;16889;67.864;24.990;2022-09-12T20:36:58;1.30;99.90
30063;DHT22;16889;67.864;24.990;2022-09-12T20:41:44;1.50;99.90
30063;DHT22;16889;67.864;24.990;2022-09-12T20:46:31;1.50;99.90
30063;DHT22;16889;67.864;24.990;2022-09-12T20:51:19;1.60;99.90
30063;DHT22;16889;67.864;24.990;2022-09-12T20:56:05;1.80;99.90
30063;DHT22;16889;67.864;24.990;2022-09-12T21:00:51;1.90;99.90
30063;DHT22;16889;67.864;24.990;2022-09-12T21:05:38;1.90;99.90
30063;DHT22;16889;67.864;24.990;2022-09-12T21:10:24;1.80;99.90
30063;DHT22;16889;67.864;24.990;2022-09-12T21:15:10;1.90;99.90
30063;DHT22;16889;67.864;24.990;2022-09-12T21:19:56;1.90;99.90
30063;DHT22;16889;67.864;24.990;2022-09-12T21:24:42;1.90;99.90
30063;DHT22;16889;67.864;24.990;2022-09-12T21:29:27;1.90;99.90
30063;DHT22;16889;67.864;24.990;2022-09-12T21:34:13;1.70;99.90
30063;DHT22;16889;67.864;24.990;2022-09-12T21:38:59;1.40;99.90
30063;DHT22;16889;67.864;24.990;2022-09-12T21:43:45;1.50;99.90
30063;DHT22;16889;67.864;24.990;2022-09-12T21:48:32;1.50;99.90
30063;DHT22;16889;67.864;24.990;2022-09-12T21:53:18;1.30;99.90
30063;DHT22;16889;67.864;24.990;2022-09-12T21:58:04;1.30;99.90
30063;DHT22;16889;67.864;24.990;2022-09-12T22:02:50;1.10;99.90
30063;DHT22;16889;67.864;24.990;2022-09-12T22:07:37;0.80;99.90
30063;DHT22;16889;67.864;24.990;2022-09-12T22:12:23;0.90;99.90
30063;DHT22;16889;67.864;24.990;2022-09-12T22:17:11;0.90;99.90
30063;DHT22;16889;67.864;24.990;2022-09-12T22:21:57;0.90;99.90
30063;DHT22;16889;67.864;24.990;2022-09-12T22:27:03;0.80;99.90
30063;DHT22;16889;67.864;24.990;2022-09-12T22:31:50;0.70;99.90
30063;DHT22;16889;67.864;24.990;2022-09-12T22:36:36;0.60;99.90
30063;DHT22;16889;67.864;24.990;2022-09-12T22:41:22;0.60;99.90
30063;DHT22;16889;67.864;24.990;2022-09-12T22:46:09;0.70;99.90
30063;DHT22;16889;67.864;24.990;2022-09-12T22:50:56;0.70;99.90
30063;DHT22;16889;67.864;24.990;2022-09-12T22:55:43;0.40;99.90
30063;DHT22;16889;67.864;24.990;2022-09-12T23:00:29;0.40;99.90
30063;DHT22;16889;67.864;24.990;2022-09-12T23:05:15;0.50;99.90
30063;DHT22;16889;67.864;24.990;2022-09-12T23:10:02;0.50;99.90
30063;DHT22;16889;67.864;24.990;2022-09-12T23:14:48;0.50;99.90
30063;DHT22;16889;67.864;24.990;2022-09-12T23:19:34;0.50;99.90
30063;DHT22;16889;67.864;24.990;2022-09-12T23:24:20;0.40;99.90
30063;DHT22;16889;67.864;24.990;2022-09-12T23:29:06;0.40;99.90
30063;DHT22;16889;67.864;24.990;2022-09-12T23:33:52;0.50;99.90
30063;DHT22;16889;67.864;24.990;2022-09-12T23:38:39;0.50;99.90
30063;DHT22;16889;67.864;24.990;2022-09-12T23:43:27;0.50;99.90
30063;DHT22;16889;67.864;24.990;2022-09-12T23:48:13;0.50;99.90
30063;DHT22;16889;67.864;24.990;2022-09-12T23:53:00;0.50;99.90
30063;DHT22;16889;67.864;24.990;2022-09-12T23:57:45;0.60;99.90
